createdAt,value
2022-12-03T00:01:07.895Z,15.98
2022-12-03T00:03:35.852Z,16.67
2022-12-03T00:06:02.277Z,16.90
2022-12-03T00:08:28.568Z,17.05
2022-12-03T00:10:54.936Z,15.60
2022-12-03T00:13:21.271Z,17.20
2022-12-03T00:15:47.633Z,16.58
2022-12-03T00:18:13.992Z,16.63
2022-12-03T00:20:40.356Z,15.32
2022-12-03T00:23:06.701Z,18.05
2022-12-03T00:25:33.089Z,16.55
2022-12-03T00:27:59.506Z,15.90
2022-12-03T00:30:25.877Z,17.05
2022-12-03T00:32:52.199Z,16.38
2022-12-03T00:35:18.538Z,17.98
2022-12-03T00:37:44.925Z,17.52
2022-12-03T00:40:11.762Z,17.65
2022-12-03T00:42:38.119Z,15.82
2022-12-03T00:45:05.008Z,16.42
2022-12-03T00:47:31.517Z,16.80
2022-12-03T00:49:57.890Z,18.92
2022-12-03T00:52:24.291Z,16.48
2022-12-03T00:54:50.781Z,18.48
2022-12-03T00:57:17.293Z,17.25
2022-12-03T00:59:43.603Z,16.70
2022-12-03T01:02:10.041Z,17.20
2022-12-03T01:04:36.454Z,18.00
2022-12-03T01:07:02.821Z,18.15
2022-12-03T01:09:29.299Z,18.27
2022-12-03T01:11:55.630Z,17.95
2022-12-03T01:14:21.975Z,17.38
2022-12-03T01:16:48.791Z,17.60
2022-12-03T01:19:16.310Z,16.98
2022-12-03T01:21:44.556Z,16.67
2022-12-03T01:24:11.612Z,17.13
2022-12-03T01:26:38.228Z,17.95
2022-12-03T01:29:05.161Z,17.58
2022-12-03T01:31:50.155Z,17.58
2022-12-03T01:34:16.500Z,17.90
2022-12-03T01:36:42.930Z,17.95
2022-12-03T01:39:09.268Z,17.95
2022-12-03T01:41:36.325Z,18.63
2022-12-03T01:44:15.034Z,18.92
2022-12-03T01:46:41.976Z,18.20
2022-12-03T01:49:16.915Z,18.52
2022-12-03T01:51:43.435Z,18.38
2022-12-03T01:54:22.216Z,18.00
2022-12-03T01:56:49.144Z,16.70
2022-12-03T01:59:17.978Z,14.95
2022-12-03T02:01:44.460Z,16.38
2022-12-03T02:04:19.948Z,15.82
2022-12-03T02:06:46.382Z,15.75
2022-12-03T02:09:13.479Z,15.95
2022-12-03T02:11:46.942Z,16.05
2022-12-03T02:14:19.403Z,15.30
2022-12-03T02:16:46.476Z,15.38
2022-12-03T02:19:26.491Z,14.70
2022-12-03T02:22:04.055Z,16.35
2022-12-03T02:24:55.239Z,15.95
2022-12-03T02:27:22.598Z,16.35
2022-12-03T02:29:48.995Z,17.27
2022-12-03T02:32:15.379Z,17.38
2022-12-03T02:34:44.815Z,19.42
2022-12-03T02:37:19.145Z,18.58
2022-12-03T02:39:51.601Z,17.02
2022-12-03T02:42:37.062Z,18.95
2022-12-03T02:45:09.211Z,17.67
2022-12-03T02:47:49.572Z,20.50
2022-12-03T02:50:20.431Z,20.80
2022-12-03T02:52:55.712Z,20.33
2022-12-03T02:55:22.997Z,21.20
2022-12-03T02:57:50.879Z,20.85
2022-12-03T03:00:18.668Z,20.98
2022-12-03T03:02:46.721Z,22.13
2022-12-03T03:05:15.621Z,23.08
2022-12-03T03:07:42.576Z,22.58
2022-12-03T03:10:14.081Z,21.95
2022-12-03T03:12:41.031Z,23.30
2022-12-03T03:15:09.149Z,22.77
2022-12-03T03:17:35.870Z,23.88
2022-12-03T03:20:04.224Z,22.33
2022-12-03T03:22:38.847Z,22.92
2022-12-03T03:25:07.308Z,23.05
2022-12-03T03:27:34.030Z,24.58
2022-12-03T03:30:00.790Z,25.48
2022-12-03T03:32:28.637Z,23.63
2022-12-03T03:34:56.514Z,24.02
2022-12-03T03:37:23.671Z,24.10
2022-12-03T03:39:50.148Z,24.27
2022-12-03T03:42:17.013Z,24.73
2022-12-03T03:44:43.690Z,23.80
2022-12-03T03:47:10.339Z,23.83
2022-12-03T03:49:36.724Z,24.45
2022-12-03T03:52:03.537Z,21.98
2022-12-03T03:54:30.524Z,22.85
2022-12-03T03:56:57.276Z,23.73
2022-12-03T03:59:23.826Z,23.50
2022-12-03T04:01:50.150Z,23.00
2022-12-03T04:04:22.008Z,23.30
2022-12-03T04:06:48.796Z,21.83
2022-12-03T04:09:15.231Z,20.95
2022-12-03T04:12:00.236Z,22.83
2022-12-03T04:14:26.551Z,21.45
2022-12-03T04:16:52.957Z,23.25
2022-12-03T04:19:19.353Z,22.90
2022-12-03T04:22:04.078Z,23.48
2022-12-03T04:24:30.480Z,23.35
2022-12-03T04:27:15.518Z,24.27
2022-12-03T04:29:41.831Z,24.73
2022-12-03T04:32:26.651Z,23.98
2022-12-03T04:35:11.478Z,24.25
2022-12-03T04:37:37.915Z,23.48
2022-12-03T04:40:24.652Z,25.10
2022-12-03T04:42:51.016Z,26.48
2022-12-03T04:45:17.327Z,26.35
2022-12-03T04:47:43.707Z,25.08
2022-12-03T04:50:10.692Z,26.08
2022-12-03T04:52:37.011Z,24.02
2022-12-03T04:55:03.728Z,24.95
2022-12-03T04:57:30.031Z,24.17
2022-12-03T04:59:56.372Z,24.60
2022-12-03T05:02:22.724Z,24.70
2022-12-03T05:04:49.057Z,24.33
2022-12-03T05:07:15.366Z,23.83
2022-12-03T05:09:41.700Z,24.25
2022-12-03T05:12:08.015Z,21.52
2022-12-03T05:14:34.337Z,20.40
2022-12-03T05:17:00.883Z,21.55
2022-12-03T05:19:47.312Z,21.90
2022-12-03T05:22:13.733Z,21.05
2022-12-03T05:24:40.077Z,20.52
2022-12-03T05:27:06.410Z,20.67
2022-12-03T05:29:32.739Z,21.63
2022-12-03T05:31:59.054Z,20.77
2022-12-03T05:34:25.353Z,20.67
2022-12-03T05:36:51.677Z,21.05
2022-12-03T05:39:17.989Z,19.02
2022-12-03T05:42:02.762Z,19.92
2022-12-03T05:44:29.070Z,19.63
2022-12-03T05:46:55.393Z,18.05
2022-12-03T05:49:21.698Z,16.50
2022-12-03T05:54:23.299Z,16.02
2022-12-03T05:56:49.852Z,15.82
2022-12-03T05:59:16.378Z,14.90
2022-12-03T06:01:43.023Z,15.15
2022-12-03T06:04:09.497Z,13.07
2022-12-03T06:06:36.022Z,13.52
2022-12-03T06:09:02.632Z,12.85
2022-12-03T06:11:30.203Z,13.48
2022-12-03T06:13:56.612Z,12.90
2022-12-03T06:16:23.203Z,14.55
2022-12-03T06:18:49.777Z,13.20
2022-12-03T06:21:16.252Z,12.82
2022-12-03T06:23:44.928Z,13.57
2022-12-03T06:26:12.234Z,14.38
2022-12-03T06:28:38.752Z,13.23
2022-12-03T06:31:05.655Z,13.68
2022-12-03T06:33:32.141Z,14.20
2022-12-03T06:35:58.568Z,14.38
2022-12-03T06:38:25.057Z,14.35
2022-12-03T06:40:51.422Z,14.93
2022-12-03T06:43:17.841Z,14.45
2022-12-03T06:45:47.657Z,15.32
2022-12-03T06:48:15.124Z,15.15
2022-12-03T06:50:41.675Z,16.50
2022-12-03T06:53:08.237Z,18.02
2022-12-03T06:55:34.729Z,18.25
2022-12-03T06:58:01.177Z,17.13
2022-12-03T07:00:27.610Z,16.92
2022-12-03T07:02:54.169Z,17.10
2022-12-03T07:05:20.718Z,17.50
2022-12-03T07:07:52.241Z,17.48
2022-12-03T07:10:19.385Z,18.63
2022-12-03T07:12:45.962Z,17.98
2022-12-03T07:15:12.906Z,18.85
2022-12-03T07:17:39.638Z,19.75
2022-12-03T07:20:06.778Z,19.98
2022-12-03T07:22:33.528Z,21.05
2022-12-03T07:24:59.996Z,20.13
2022-12-03T07:27:26.576Z,19.50
2022-12-03T07:29:53.012Z,20.85
2022-12-03T07:32:19.479Z,18.67
2022-12-03T07:34:45.943Z,19.50
2022-12-03T07:37:12.475Z,18.52
2022-12-03T07:39:38.943Z,18.95
2022-12-03T07:42:05.496Z,18.55
2022-12-03T07:44:31.962Z,18.60
2022-12-03T07:46:58.666Z,19.17
2022-12-03T07:49:26.714Z,19.35
2022-12-03T07:51:56.935Z,18.25
2022-12-03T07:54:24.541Z,18.33
2022-12-03T07:56:51.107Z,18.50
2022-12-03T07:59:18.920Z,18.58
2022-12-03T08:01:46.095Z,18.73
2022-12-03T08:04:14.643Z,19.85
2022-12-03T08:06:41.785Z,18.23
2022-12-03T08:09:11.958Z,17.83
2022-12-03T08:11:42.367Z,16.02
2022-12-03T08:14:17.833Z,16.85
2022-12-03T08:16:46.126Z,16.83
2022-12-03T08:19:16.138Z,17.25
2022-12-03T08:21:43.650Z,16.35
2022-12-03T08:24:19.026Z,17.52
2022-12-03T08:26:47.210Z,17.00
2022-12-03T08:29:18.949Z,16.98
2022-12-03T08:31:52.213Z,16.27
2022-12-03T08:34:28.006Z,16.55
2022-12-03T08:37:05.902Z,17.25
2022-12-03T08:39:35.682Z,17.00
2022-12-03T08:42:32.080Z,15.07
2022-12-03T08:45:21.108Z,16.73
2022-12-03T08:47:47.619Z,15.35
2022-12-03T08:50:30.187Z,15.77
2022-12-03T08:53:07.983Z,16.27
2022-12-03T08:55:36.949Z,14.75
2022-12-03T08:58:16.473Z,14.45
2022-12-03T09:00:43.146Z,15.25
2022-12-03T09:03:16.049Z,15.25
2022-12-03T09:08:08.978Z,13.70
2022-12-03T09:10:35.480Z,16.00
2022-12-03T09:13:02.044Z,16.40
2022-12-03T09:15:28.575Z,16.65
2022-12-03T09:17:55.125Z,16.90
2022-12-03T09:20:21.627Z,16.90
2022-12-03T09:22:48.177Z,18.00
2022-12-03T09:25:15.003Z,17.40
2022-12-03T09:27:41.543Z,18.33
2022-12-03T09:30:08.335Z,17.38
2022-12-03T09:32:34.999Z,18.23
2022-12-03T09:35:01.453Z,17.50
2022-12-03T09:37:27.984Z,16.65
2022-12-03T09:39:54.456Z,18.42
2022-12-03T09:42:21.085Z,17.75
2022-12-03T09:44:47.620Z,17.85
2022-12-03T09:47:14.238Z,19.25
2022-12-03T09:49:41.357Z,18.75
2022-12-03T09:52:08.676Z,18.80
2022-12-03T09:54:35.308Z,19.45
2022-12-03T09:57:04.180Z,20.67
2022-12-03T09:59:34.223Z,18.42
2022-12-03T10:02:01.745Z,20.05
2022-12-03T10:04:29.746Z,20.42
2022-12-03T10:06:58.300Z,19.05
2022-12-03T10:09:27.519Z,20.25
2022-12-03T10:11:56.403Z,20.00
2022-12-03T10:14:23.163Z,21.70
2022-12-03T10:16:50.007Z,20.58
2022-12-03T10:19:26.365Z,20.80
2022-12-03T10:21:52.999Z,21.88
2022-12-03T10:24:25.908Z,21.33
2022-12-03T10:29:32.905Z,16.95
2022-12-03T10:32:11.727Z,22.67
2022-12-03T10:34:41.547Z,21.45
2022-12-03T10:37:13.093Z,22.25
2022-12-03T10:39:58.436Z,22.77
2022-12-03T10:42:29.705Z,21.58
2022-12-03T10:45:08.547Z,22.55
2022-12-03T10:47:35.140Z,20.42
2022-12-03T10:50:14.328Z,22.35
2022-12-03T10:52:40.924Z,21.42
2022-12-03T10:55:11.994Z,22.45
2022-12-03T10:57:45.014Z,23.52
2022-12-03T11:00:19.286Z,23.33
2022-12-03T11:02:51.714Z,23.65
2022-12-03T11:05:29.343Z,24.08
2022-12-03T11:07:56.964Z,22.38
2022-12-03T11:10:24.320Z,23.27
2022-12-03T11:13:29.641Z,23.02
2022-12-03T11:15:56.821Z,22.88
2022-12-03T11:18:38.505Z,23.52
2022-12-03T11:21:06.577Z,24.67
2022-12-03T11:23:45.222Z,24.15
2022-12-03T11:26:19.854Z,23.17
2022-12-03T11:28:46.668Z,23.33
2022-12-03T11:31:38.220Z,25.63
2022-12-03T11:34:20.240Z,24.27
2022-12-03T11:37:11.405Z,22.58
2022-12-03T11:39:55.517Z,22.88
2022-12-03T11:42:25.525Z,21.88
2022-12-03T11:45:04.117Z,23.48
2022-12-03T11:47:41.084Z,24.50
2022-12-03T11:50:24.539Z,23.40
2022-12-03T11:52:59.004Z,22.92
2022-12-03T11:55:31.192Z,24.38
2022-12-03T11:58:03.047Z,16.30
2022-12-03T12:00:29.644Z,22.88
2022-12-03T12:02:58.006Z,22.27
2022-12-03T12:05:28.112Z,24.23
2022-12-03T12:07:55.849Z,25.33
2022-12-03T12:10:43.496Z,23.83
2022-12-03T12:13:31.692Z,22.65
2022-12-03T12:15:59.101Z,23.05
2022-12-03T12:18:45.627Z,22.75
2022-12-03T12:21:40.827Z,23.30
2022-12-03T12:24:42.970Z,22.02
2022-12-03T12:27:17.267Z,21.70
2022-12-03T12:29:48.377Z,22.15
2022-12-03T12:32:17.540Z,22.40
2022-12-03T12:34:46.728Z,22.90
2022-12-03T12:37:47.217Z,24.80
2022-12-03T12:40:16.172Z,24.30
2022-12-03T12:42:52.979Z,23.98
2022-12-03T12:45:22.548Z,23.85
2022-12-03T12:48:14.820Z,23.42
2022-12-03T12:50:43.381Z,24.33
2022-12-03T12:53:18.537Z,25.05
2022-12-03T12:55:44.982Z,24.45
2022-12-03T12:58:19.765Z,23.20
2022-12-03T13:00:51.543Z,25.65
2022-12-03T13:03:20.023Z,26.42
2022-12-03T13:05:49.259Z,26.85
2022-12-03T13:08:20.702Z,25.98
2022-12-03T13:10:47.498Z,25.67
2022-12-03T13:13:23.099Z,26.02
2022-12-03T13:15:56.040Z,25.48
2022-12-03T13:20:55.309Z,22.52
2022-12-03T13:23:30.210Z,23.83
2022-12-03T13:26:04.703Z,25.10
2022-12-03T13:28:34.348Z,26.63
2022-12-03T13:31:18.531Z,26.85
2022-12-03T13:33:44.987Z,25.50
2022-12-03T13:36:14.848Z,26.98
2022-12-03T13:38:41.508Z,25.48
2022-12-03T13:41:37.287Z,24.95
2022-12-03T13:44:13.344Z,24.73
2022-12-03T13:46:39.710Z,26.85
2022-12-03T13:49:34.324Z,25.10
2022-12-03T13:52:00.744Z,25.10
2022-12-03T13:54:31.153Z,26.48
2022-12-03T13:56:57.545Z,25.17
2022-12-03T13:59:26.284Z,24.90
2022-12-03T14:01:52.920Z,25.73
2022-12-03T14:04:19.246Z,24.70
2022-12-03T14:06:45.557Z,26.05
2022-12-03T14:09:11.941Z,26.67
2022-12-03T14:11:56.937Z,24.58
2022-12-03T14:14:23.267Z,24.35
2022-12-03T14:16:49.649Z,26.08
2022-12-03T14:19:16.026Z,25.45
2022-12-03T14:21:42.459Z,25.85
2022-12-03T14:24:08.837Z,26.67
2022-12-03T14:26:35.206Z,25.73
2022-12-03T14:29:07.200Z,25.50
2022-12-03T14:31:35.124Z,25.30
2022-12-03T14:34:01.502Z,25.27
2022-12-03T14:36:27.819Z,24.30
2022-12-03T14:38:54.134Z,23.25
2022-12-03T14:41:39.076Z,23.63
2022-12-03T14:44:05.427Z,23.20
2022-12-03T14:46:31.786Z,25.80
2022-12-03T14:48:58.148Z,24.58
2022-12-03T14:51:24.769Z,24.30
2022-12-03T14:53:51.116Z,25.77
2022-12-03T14:56:17.491Z,24.80
2022-12-03T14:58:43.868Z,25.13
2022-12-03T15:01:10.303Z,24.73
2022-12-03T15:03:36.718Z,25.50
2022-12-03T15:06:03.100Z,26.42
2022-12-03T15:08:29.473Z,25.95
2022-12-03T15:10:55.814Z,26.48
2022-12-03T15:13:22.261Z,24.88
2022-12-03T15:15:48.626Z,26.58
2022-12-03T15:18:14.958Z,24.70
2022-12-03T15:20:41.299Z,26.55
2022-12-03T15:23:12.735Z,26.83
2022-12-03T15:28:07.135Z,21.67
2022-12-03T15:30:35.738Z,23.65
2022-12-03T15:33:03.320Z,24.63
2022-12-03T15:35:30.263Z,25.58
2022-12-03T15:37:56.775Z,25.02
2022-12-03T15:40:23.382Z,26.65
2022-12-03T15:42:49.692Z,25.65
2022-12-03T15:45:16.114Z,24.35
2022-12-03T15:47:42.457Z,27.50
2022-12-03T15:50:09.254Z,26.92
2022-12-03T15:52:35.613Z,26.55
2022-12-03T15:55:02.484Z,27.38
2022-12-03T15:57:29.516Z,25.48
2022-12-03T15:59:56.272Z,27.17
2022-12-03T16:02:23.010Z,26.65
2022-12-03T16:04:49.374Z,27.23
2022-12-03T16:07:15.667Z,27.15
2022-12-03T16:09:41.970Z,27.70
2022-12-03T16:12:08.277Z,27.27
2022-12-03T16:14:34.630Z,27.70
2022-12-03T16:17:01.004Z,27.67
2022-12-03T16:19:27.345Z,27.88
2022-12-03T16:21:53.667Z,27.05
2022-12-03T16:24:20.004Z,27.70
2022-12-03T16:26:46.379Z,28.25
2022-12-03T16:29:12.730Z,28.73
2022-12-03T16:31:39.149Z,28.73
2022-12-03T16:34:05.556Z,29.02
2022-12-03T16:36:31.901Z,27.77
2022-12-03T16:38:58.219Z,28.35
2022-12-03T16:41:24.668Z,27.60
2022-12-03T16:43:51.211Z,28.75
2022-12-03T16:46:17.617Z,29.67
2022-12-03T16:48:44.009Z,29.33
2022-12-03T16:51:10.968Z,28.38
2022-12-03T16:53:37.328Z,29.70
2022-12-03T16:56:03.874Z,29.20
2022-12-03T16:58:30.309Z,28.63
2022-12-03T17:00:56.725Z,27.92
2022-12-03T17:03:23.277Z,28.48
2022-12-03T17:05:49.876Z,28.90
2022-12-03T17:08:16.983Z,28.85
2022-12-03T17:10:44.147Z,29.30
2022-12-03T17:13:11.000Z,30.58
2022-12-03T17:15:38.443Z,27.85
2022-12-03T17:18:05.424Z,29.58
2022-12-03T17:20:33.294Z,30.17
2022-12-03T17:23:00.089Z,30.58
2022-12-03T17:25:27.213Z,29.70
2022-12-03T17:27:53.707Z,30.33
2022-12-03T17:30:20.154Z,30.23
2022-12-03T17:32:46.564Z,29.67
2022-12-03T17:35:12.927Z,31.45
2022-12-03T17:37:39.311Z,29.50
2022-12-03T17:40:07.809Z,31.58
2022-12-03T17:42:34.170Z,31.10
2022-12-03T17:45:00.563Z,29.58
2022-12-03T17:47:26.930Z,28.55
2022-12-03T17:49:53.685Z,30.15
2022-12-03T17:52:20.324Z,29.35
2022-12-03T17:57:28.404Z,29.67
2022-12-03T17:59:55.208Z,30.77
2022-12-03T18:02:21.997Z,29.67
2022-12-03T18:04:48.626Z,29.30
2022-12-03T18:07:15.076Z,29.10
2022-12-03T18:09:42.203Z,28.42
2022-12-03T18:12:08.708Z,29.52
2022-12-03T18:14:35.259Z,29.85
2022-12-03T18:17:01.807Z,28.95
2022-12-03T18:19:28.231Z,29.58
2022-12-03T18:21:55.165Z,30.50
2022-12-03T18:24:22.304Z,31.17
2022-12-03T18:26:48.875Z,30.88
2022-12-03T18:29:15.274Z,30.33
2022-12-03T18:31:41.787Z,29.75
2022-12-03T18:34:08.323Z,29.73
2022-12-03T18:36:36.455Z,30.33
2022-12-03T18:39:05.999Z,31.17
2022-12-03T18:41:33.499Z,29.80
2022-12-03T18:44:03.633Z,31.77
2022-12-03T18:46:52.303Z,29.88
2022-12-03T18:49:17.699Z,29.70
2022-12-03T18:51:44.165Z,30.63
2022-12-03T18:54:14.062Z,30.00
2022-12-03T18:56:41.895Z,29.70
2022-12-03T18:59:09.096Z,30.65
2022-12-03T19:01:35.757Z,30.38
2022-12-03T19:04:02.626Z,31.90
2022-12-03T19:06:30.442Z,31.52
2022-12-03T19:08:57.165Z,30.85
2022-12-03T19:11:23.665Z,31.25
2022-12-03T19:13:50.343Z,29.90
2022-12-03T19:16:17.278Z,31.70
2022-12-03T19:18:44.303Z,31.90
2022-12-03T19:21:14.827Z,31.17
2022-12-03T19:23:47.343Z,32.50
2022-12-03T19:26:25.690Z,32.58
2022-12-03T19:28:53.599Z,31.73
2022-12-03T19:31:20.692Z,32.30
2022-12-03T19:33:47.508Z,31.23
2022-12-03T19:36:32.318Z,32.70
2022-12-03T19:38:59.879Z,31.88
2022-12-03T19:41:30.468Z,31.27
2022-12-03T19:43:57.890Z,31.30
2022-12-03T19:46:28.668Z,31.15
2022-12-03T19:48:55.175Z,30.83
2022-12-03T19:51:36.990Z,30.65
2022-12-03T19:54:08.148Z,31.73
2022-12-03T19:56:35.150Z,30.92
2022-12-03T19:59:02.288Z,31.40
2022-12-03T20:01:31.649Z,32.08
2022-12-03T20:04:00.867Z,32.58
2022-12-03T20:06:30.297Z,30.80
2022-12-03T20:09:06.424Z,33.03
2022-12-03T20:11:33.985Z,31.80
2022-12-03T20:14:09.457Z,31.42
2022-12-03T20:16:36.398Z,31.10
2022-12-03T20:19:05.124Z,33.65
2022-12-03T20:21:34.145Z,32.15
2022-12-03T20:24:00.950Z,31.90
2022-12-03T20:26:28.335Z,32.78
2022-12-03T20:28:56.265Z,34.47
2022-12-03T20:31:25.231Z,32.78
2022-12-03T20:33:55.051Z,32.60
2022-12-03T20:36:22.832Z,32.78
2022-12-03T20:38:53.819Z,34.33
2022-12-03T20:41:20.973Z,30.83
2022-12-03T20:43:47.851Z,35.90
2022-12-03T20:46:17.320Z,32.20
2022-12-03T20:48:45.200Z,35.00
2022-12-03T20:51:14.692Z,34.00
2022-12-03T20:53:42.101Z,33.40
2022-12-03T20:56:09.146Z,34.22
2022-12-03T20:58:35.992Z,32.90
2022-12-03T21:01:16.421Z,33.83
2022-12-03T21:03:44.089Z,32.95
2022-12-03T21:06:11.735Z,31.98
2022-12-03T21:08:41.866Z,33.50
2022-12-03T21:11:15.156Z,33.47
2022-12-03T21:13:43.411Z,32.70
2022-12-03T21:16:15.820Z,31.92
2022-12-03T21:18:42.885Z,31.77
2022-12-03T21:21:13.047Z,34.20
2022-12-03T21:23:39.994Z,33.15
2022-12-03T21:26:12.896Z,34.10
2022-12-03T21:31:10.971Z,28.98
2022-12-03T21:33:38.338Z,31.55
2022-12-03T21:36:05.788Z,32.47
2022-12-03T21:38:33.299Z,34.00
2022-12-03T21:41:00.667Z,33.83
2022-12-03T21:43:27.559Z,33.25
2022-12-03T21:45:54.295Z,34.30
2022-12-03T21:48:21.651Z,33.85
2022-12-03T21:51:18.104Z,34.10
2022-12-03T21:53:45.786Z,32.00
2022-12-03T21:56:14.727Z,32.90
2022-12-03T21:58:41.583Z,32.80
2022-12-03T22:01:26.439Z,33.38
2022-12-03T22:03:53.051Z,33.72
2022-12-03T22:06:20.071Z,33.72
2022-12-03T22:08:46.859Z,32.47
2022-12-03T22:11:19.487Z,33.00
2022-12-03T22:13:46.493Z,32.40
2022-12-03T22:16:15.800Z,31.48
2022-12-03T22:18:42.804Z,33.00
2022-12-03T22:21:12.238Z,35.30
2022-12-03T22:23:39.533Z,32.17
2022-12-03T22:26:08.888Z,32.05
2022-12-03T22:28:35.819Z,32.95
2022-12-03T22:31:09.775Z,32.53
2022-12-03T22:33:37.345Z,32.25
2022-12-03T22:36:07.166Z,32.63
2022-12-03T22:38:34.284Z,32.10
2022-12-03T22:41:07.838Z,32.60
2022-12-03T22:43:37.099Z,31.75
2022-12-03T22:46:04.834Z,31.63
2022-12-03T22:48:34.265Z,31.25
2022-12-03T22:51:00.856Z,32.22
2022-12-03T22:53:27.475Z,31.52
2022-12-03T22:55:59.432Z,33.35
2022-12-03T22:58:26.915Z,32.50
2022-12-03T23:00:57.409Z,32.63
2022-12-03T23:03:29.119Z,32.30
2022-12-03T23:05:55.581Z,33.55
2022-12-03T23:08:22.407Z,32.17
2022-12-03T23:10:53.068Z,31.30
2022-12-03T23:13:20.080Z,32.05
2022-12-03T23:15:48.207Z,32.65
2022-12-03T23:18:15.016Z,31.52
2022-12-03T23:20:47.192Z,33.85
2022-12-03T23:23:14.698Z,24.80
2022-12-03T23:25:41.746Z,30.60
2022-12-03T23:28:08.861Z,32.45
2022-12-03T23:30:37.116Z,32.05
2022-12-03T23:33:05.308Z,30.95
2022-12-03T23:35:32.541Z,32.03
2022-12-03T23:37:59.000Z,29.50
2022-12-03T23:40:25.533Z,31.67
2022-12-03T23:42:52.005Z,32.08
2022-12-03T23:45:18.588Z,31.08
2022-12-03T23:47:44.996Z,32.65
2022-12-03T23:50:12.040Z,32.35
2022-12-03T23:52:38.492Z,32.70
2022-12-03T23:57:34.946Z,32.88
